Tucson, AZ

8:45 PM MST on February 05, 2016 (GMT -0700)
UA WRRC WEATHER | | Change Station
CLOSE
Current Station
Personal Weather Station
Location: Tucson, AZ
Elevation: 2431 ft
Nearby Weather Stations

Elev 2431 ft 32.23 °N, 110.94 °W | Updated 7 minutes ago

Clear
Clear
53.2 °F
Feels Like 53.2 °F
N
0.0
Wind Variable Wind from East
Gusts 4.0 mph

Today
High -- | Low -- °F
--% Chance of Precip.
Yesterday
High -- | Low -- °F
Precip. -- in
Pressure 30.27 in
Visibility 10.0 miles
Clouds Clear
Dew Point 21 °F
Humidity 28%
Rainfall 0.00 in
Snow Depth Not available.
7:15 AM 6:00 PM
Waning Crescent, 8% visible
METAR KDMA 060258Z AUTO 14006KT 10SM CLR 11/M08 A3028 RMK AO2 SLP251 T01111082 53014 $
Pressure 30.27 in
Visibility 10.0 miles
Clouds Clear
Dew Point 21 °F
Humidity 28%
Rainfall 0.00 in
Snow Depth Not available.
7:15 AM 6:00 PM
Waning Crescent, 8% visible
METAR KDMA 060258Z AUTO 14006KT 10SM CLR 11/M08 A3028 RMK AO2 SLP251 T01111082 53014 $

10-Day Weather Forecast

Almanac

Astronomy

Feb. 05, 2016 Rise Set
Actual Time
Civil Twilight
Nautical Twilight
Astronomical Twilight
Moon
Length of Visible Light
Length of Day
Tomorrow will be .
, % of the Moon is Illuminated

Today's Extremes

State Highs State Lows

Community

WunderPhotos

Upload Photos

1,890,922 photos uploaded!

WunderBlog® & News

Nearby

Air Quality

  Air Quality AQ Index Pollutant
Not available.

Snow Depth

Station Depth Elevation

Earthquake Activity

City Distance Mag. Time & Date
Minimum magnitude displayed is 2.5.

Coastal Water Temperatures

Place Temperature

Stations

Nearby Weather Stations

Station Location Temp. Windchill Dew Point Humidity Wind Precip. Elev Updated Type
                   

Watches & Warnings

There are currently no watches in effect.